createdAt,value
2017-07-23T00:02:08.032Z,11.23
2017-07-23T00:04:35.237Z,11.48
2017-07-23T00:07:01.675Z,12.53
2017-07-23T00:09:28.094Z,12.15
2017-07-23T00:11:54.587Z,13.98
2017-07-23T00:14:21.022Z,14.50
2017-07-23T00:16:48.222Z,15.00
2017-07-23T00:19:14.633Z,15.50
2017-07-23T00:21:41.128Z,15.70
2017-07-23T00:24:08.311Z,16.10
2017-07-23T00:26:34.789Z,16.52
2017-07-23T00:29:01.220Z,16.52
2017-07-23T00:31:27.650Z,16.70
2017-07-23T00:33:54.882Z,16.37
2017-07-23T00:36:21.354Z,16.00
2017-07-23T00:38:47.790Z,15.10
2017-07-23T00:41:14.242Z,16.23
2017-07-23T00:43:40.672Z,15.60
2017-07-23T00:46:07.116Z,15.93
2017-07-23T00:48:34.320Z,16.35
2017-07-23T00:51:04.247Z,15.77
2017-07-23T00:53:30.787Z,15.50
2017-07-23T00:55:57.217Z,15.65
2017-07-23T00:58:23.803Z,15.40
2017-07-23T01:00:50.361Z,15.50
2017-07-23T01:03:16.829Z,16.00
2017-07-23T01:05:43.738Z,14.77
2017-07-23T01:08:10.225Z,15.85
2017-07-23T01:10:37.541Z,15.40
2017-07-23T01:13:03.974Z,16.12
2017-07-23T01:15:30.429Z,15.03
2017-07-23T01:17:56.865Z,14.98
2017-07-23T01:20:24.065Z,15.50
2017-07-23T01:22:50.480Z,15.80
2017-07-23T01:25:16.912Z,15.30
2017-07-23T01:27:43.322Z,15.35
2017-07-23T01:30:09.806Z,15.00
2017-07-23T01:32:36.238Z,15.60
2017-07-23T01:35:02.730Z,15.20
2017-07-23T01:37:29.221Z,15.80
2017-07-23T01:39:56.068Z,15.00
2017-07-23T01:42:22.524Z,15.05
2017-07-23T01:44:48.931Z,15.03
2017-07-23T01:47:15.417Z,15.15
2017-07-23T01:49:41.875Z,16.08
2017-07-23T01:52:08.398Z,14.50
2017-07-23T01:54:34.857Z,14.45
2017-07-23T01:57:01.341Z,15.10
2017-07-23T01:59:27.807Z,15.48
2017-07-23T02:01:54.255Z,15.38
2017-07-23T02:04:20.653Z,15.55
2017-07-23T02:06:47.079Z,15.70
2017-07-23T02:09:13.495Z,14.80
2017-07-23T02:11:40.080Z,15.50
2017-07-23T02:14:06.476Z,15.03
2017-07-23T02:16:32.964Z,15.50
2017-07-23T02:18:59.384Z,15.10
2017-07-23T02:21:25.860Z,15.68
2017-07-23T02:23:53.043Z,17.17
2017-07-23T02:26:19.458Z,16.60
2017-07-23T02:28:45.949Z,16.92
2017-07-23T02:31:12.394Z,16.87
2017-07-23T02:33:39.570Z,16.77
2017-07-23T02:36:06.753Z,18.12
2017-07-23T02:38:33.219Z,18.23
2017-07-23T02:40:59.663Z,18.40
2017-07-23T02:43:26.840Z,18.67
2017-07-23T02:45:53.260Z,18.62
2017-07-23T02:48:19.719Z,19.00
2017-07-23T02:50:46.193Z,19.25
2017-07-23T02:53:13.389Z,18.20
2017-07-23T02:55:39.845Z,17.70
2017-07-23T02:58:06.398Z,17.50
2017-07-23T03:00:32.877Z,16.62
2017-07-23T03:02:59.307Z,17.40
2017-07-23T03:05:25.711Z,16.52
2017-07-23T03:07:52.202Z,15.50
2017-07-23T03:10:19.388Z,14.65
2017-07-23T03:12:46.612Z,15.88
2017-07-23T03:15:13.348Z,15.57
2017-07-23T03:17:39.733Z,15.60
2017-07-23T03:20:06.818Z,14.23
2017-07-23T03:22:33.250Z,14.50
2017-07-23T03:24:59.705Z,14.48
2017-07-23T03:27:26.134Z,14.63
2017-07-23T03:29:52.573Z,14.10
2017-07-23T03:32:19.856Z,13.52
2017-07-23T03:34:46.312Z,13.13
2017-07-23T03:37:12.751Z,12.55
2017-07-23T03:39:39.925Z,12.35
2017-07-23T03:42:07.213Z,12.52
2017-07-23T03:44:33.653Z,11.43
2017-07-23T03:47:00.846Z,11.52
2017-07-23T03:49:27.297Z,9.70
2017-07-23T03:51:53.736Z,9.75
2017-07-23T03:54:20.901Z,8.73
2017-07-23T03:56:48.202Z,8.90
2017-07-23T03:59:14.759Z,9.00
2017-07-23T04:01:41.214Z,9.55
2017-07-23T04:04:07.637Z,9.52
2017-07-23T04:06:34.074Z,9.48
2017-07-23T04:09:00.532Z,9.00
2017-07-23T04:11:26.966Z,8.88
2017-07-23T04:13:54.338Z,9.27
2017-07-23T04:16:20.873Z,9.27
2017-07-23T04:18:47.333Z,9.00
2017-07-23T04:21:13.755Z,8.90
2017-07-23T04:23:40.240Z,9.93
2017-07-23T04:26:07.459Z,9.37
2017-07-23T04:28:34.457Z,8.70
2017-07-23T04:31:00.885Z,8.20
2017-07-23T04:33:27.354Z,7.70
2017-07-23T04:35:53.795Z,7.30
2017-07-23T04:38:20.211Z,7.90
2017-07-23T04:40:46.651Z,7.40
2017-07-23T04:43:14.091Z,7.00
2017-07-23T04:45:40.558Z,7.00
2017-07-23T04:48:06.969Z,6.90
2017-07-23T04:50:33.425Z,6.80
2017-07-23T04:52:59.851Z,6.50
2017-07-23T04:55:27.021Z,6.22
2017-07-23T04:57:54.208Z,6.10
2017-07-23T05:00:20.766Z,6.25
2017-07-23T05:02:47.227Z,6.68
2017-07-23T05:05:13.646Z,6.45
2017-07-23T05:07:40.093Z,6.43
2017-07-23T05:10:06.542Z,6.40
2017-07-23T05:12:32.987Z,6.20
2017-07-23T05:14:59.395Z,6.90
2017-07-23T05:17:26.580Z,6.80
2017-07-23T05:19:54.208Z,6.68
2017-07-23T05:22:20.666Z,6.50
2017-07-23T05:24:47.097Z,7.00
2017-07-23T05:27:14.082Z,6.93
2017-07-23T05:29:40.594Z,7.07
2017-07-23T05:32:07.029Z,7.10
2017-07-23T05:34:33.470Z,7.20
2017-07-23T05:36:59.919Z,7.03
2017-07-23T05:39:26.419Z,7.40
2017-07-23T05:41:52.859Z,8.00
2017-07-23T05:44:20.148Z,7.50
2017-07-23T05:46:46.573Z,7.35
2017-07-23T05:49:12.977Z,7.78
2017-07-23T05:51:39.518Z,7.47
2017-07-23T05:54:06.076Z,8.13
2017-07-23T05:56:32.477Z,7.93
2017-07-23T05:58:59.446Z,8.07
2017-07-23T06:01:25.957Z,8.25
2017-07-23T06:03:53.122Z,8.20
2017-07-23T06:06:19.590Z,7.68
2017-07-23T06:08:46.042Z,7.80
2017-07-23T06:11:12.500Z,7.50
2017-07-23T06:13:38.980Z,8.00
2017-07-23T06:16:05.391Z,8.70
2017-07-23T06:18:33.104Z,9.02
2017-07-23T06:20:59.544Z,8.15
2017-07-23T06:23:26.710Z,8.57
2017-07-23T06:25:53.853Z,8.07
2017-07-23T06:28:20.266Z,8.40
2017-07-23T06:30:47.369Z,7.72
2017-07-23T06:33:13.798Z,7.90
2017-07-23T06:35:40.463Z,7.90
2017-07-23T06:38:06.899Z,7.80
2017-07-23T06:40:33.451Z,8.02
2017-07-23T06:42:59.915Z,7.50
2017-07-23T06:45:26.371Z,7.90
2017-07-23T06:47:53.132Z,7.95
2017-07-23T06:50:19.685Z,7.65
2017-07-23T06:52:46.138Z,7.30
2017-07-23T06:55:13.014Z,7.43
2017-07-23T06:57:39.481Z,8.30
2017-07-23T07:00:05.937Z,7.65
2017-07-23T07:02:32.358Z,8.20
2017-07-23T07:04:59.651Z,8.52
2017-07-23T07:07:26.142Z,9.50
2017-07-23T07:09:53.383Z,9.68
2017-07-23T07:12:20.050Z,10.17
2017-07-23T07:14:46.484Z,10.00
2017-07-23T07:17:12.956Z,10.27
2017-07-23T07:19:39.448Z,10.40
2017-07-23T07:22:05.918Z,9.30
2017-07-23T07:24:32.427Z,8.57
2017-07-23T07:26:58.987Z,8.80
2017-07-23T07:29:25.437Z,9.25
2017-07-23T07:31:51.997Z,9.50
2017-07-23T07:34:18.433Z,9.15
2017-07-23T07:36:46.361Z,8.87
2017-07-23T07:39:12.904Z,8.60
2017-07-23T07:41:39.343Z,8.18
2017-07-23T07:44:06.541Z,8.70
2017-07-23T07:46:34.333Z,8.50
2017-07-23T07:49:01.088Z,8.13
2017-07-23T07:51:28.186Z,9.27
2017-07-23T07:53:54.704Z,8.90
2017-07-23T07:56:23.005Z,8.50
2017-07-23T07:58:49.868Z,8.85
2017-07-23T08:01:17.470Z,8.90
2017-07-23T08:03:44.010Z,9.50
2017-07-23T08:06:10.932Z,8.98
2017-07-23T08:08:37.954Z,9.23
2017-07-23T08:11:04.622Z,9.38
2017-07-23T08:13:31.368Z,8.02
2017-07-23T08:15:57.862Z,8.30
2017-07-23T08:18:24.425Z,8.50
2017-07-23T08:20:51.087Z,8.20
2017-07-23T08:23:18.419Z,9.00
2017-07-23T08:25:45.941Z,8.80
2017-07-23T08:28:12.395Z,8.60
2017-07-23T08:30:39.224Z,8.43
2017-07-23T08:33:06.493Z,8.00
2017-07-23T08:35:33.628Z,8.40
2017-07-23T08:38:00.817Z,8.15
2017-07-23T08:40:27.603Z,8.60
2017-07-23T08:42:54.365Z,8.45
2017-07-23T08:45:20.922Z,10.20
2017-07-23T08:47:48.551Z,8.80
2017-07-23T08:50:15.290Z,8.63
2017-07-23T08:52:42.320Z,8.40
2017-07-23T08:55:10.272Z,8.30
2017-07-23T08:57:53.050Z,8.45
2017-07-23T09:00:20.560Z,8.90
2017-07-23T09:02:47.289Z,9.00
2017-07-23T09:05:15.600Z,8.80
2017-07-23T09:07:42.698Z,9.10
2017-07-23T09:10:10.280Z,8.60
2017-07-23T09:12:40.925Z,9.00
2017-07-23T09:15:07.418Z,8.00
2017-07-23T09:17:34.111Z,8.70
2017-07-23T09:20:01.474Z,8.70
2017-07-23T09:22:28.229Z,7.90
2017-07-23T09:24:56.888Z,8.82
2017-07-23T09:27:25.043Z,8.55
2017-07-23T09:29:52.636Z,6.90
2017-07-23T09:32:19.386Z,6.03
2017-07-23T09:34:46.886Z,4.10
2017-07-23T09:37:14.652Z,4.62
2017-07-23T09:39:41.928Z,4.72
2017-07-23T09:42:09.112Z,4.15
2017-07-23T09:44:35.768Z,4.20
2017-07-23T09:47:04.442Z,4.97
2017-07-23T09:49:31.741Z,3.30
2017-07-23T09:51:58.824Z,3.53
2017-07-23T09:54:28.167Z,3.42
2017-07-23T09:56:54.786Z,3.75
2017-07-23T09:59:21.287Z,3.55
2017-07-23T10:01:49.443Z,3.58
2017-07-23T10:04:16.177Z,3.60
2017-07-23T10:06:45.729Z,3.70
2017-07-23T10:09:12.277Z,4.00
2017-07-23T10:11:41.277Z,3.70
2017-07-23T10:14:08.013Z,4.03
2017-07-23T10:16:37.623Z,4.10
2017-07-23T10:19:04.955Z,4.10
2017-07-23T10:21:31.864Z,4.57
2017-07-23T10:24:00.366Z,4.25
2017-07-23T10:26:29.196Z,4.20
2017-07-23T10:28:57.592Z,4.60
2017-07-23T10:31:24.544Z,4.68
2017-07-23T10:33:52.788Z,4.80
2017-07-23T10:36:20.591Z,4.85
2017-07-23T10:38:47.106Z,4.70
2017-07-23T10:41:17.454Z,5.40
2017-07-23T10:43:44.868Z,4.78
2017-07-23T10:46:12.374Z,5.10
2017-07-23T10:48:40.877Z,5.12
2017-07-23T10:51:08.638Z,4.90
2017-07-23T10:53:35.400Z,5.20
2017-07-23T10:56:02.467Z,4.90
2017-07-23T10:58:29.231Z,5.20
2017-07-23T11:00:55.789Z,4.78
2017-07-23T11:03:22.634Z,5.40
2017-07-23T11:05:50.281Z,4.70
2017-07-23T11:08:18.471Z,4.82
2017-07-23T11:10:45.096Z,5.20
2017-07-23T11:13:12.185Z,4.90
2017-07-23T11:15:38.863Z,5.15
2017-07-23T11:18:06.917Z,5.00
2017-07-23T11:20:33.521Z,4.90
2017-07-23T11:23:01.690Z,4.70
2017-07-23T11:25:28.435Z,5.03
2017-07-23T11:27:55.117Z,4.87
2017-07-23T11:30:21.939Z,4.90
2017-07-23T11:32:48.822Z,5.10
2017-07-23T11:35:15.486Z,4.27
2017-07-23T11:37:54.215Z,4.20
2017-07-23T11:40:20.886Z,4.40
2017-07-23T11:42:48.659Z,4.50
2017-07-23T11:45:16.125Z,4.70
2017-07-23T11:47:42.800Z,4.20
2017-07-23T11:50:09.958Z,4.50
2017-07-23T11:52:37.611Z,4.30
2017-07-23T11:55:05.442Z,4.25
2017-07-23T11:57:32.615Z,4.20
2017-07-23T11:59:59.205Z,4.30
2017-07-23T12:02:25.831Z,4.30
2017-07-23T12:04:53.179Z,4.17
2017-07-23T12:07:21.032Z,4.30
2017-07-23T12:09:48.474Z,4.20
2017-07-23T12:12:14.944Z,4.80
2017-07-23T12:14:41.419Z,4.10
2017-07-23T12:17:08.684Z,4.53
2017-07-23T12:19:35.223Z,4.18
2017-07-23T12:22:02.237Z,4.10
2017-07-23T12:24:28.734Z,4.57
2017-07-23T12:26:56.046Z,4.35
2017-07-23T12:29:23.676Z,3.90
2017-07-23T12:31:50.269Z,4.07
2017-07-23T12:34:16.740Z,3.85
2017-07-23T12:36:43.275Z,4.20
2017-07-23T12:39:09.744Z,4.00
2017-07-23T12:41:37.370Z,3.60
2017-07-23T12:44:04.646Z,4.20
2017-07-23T12:46:31.389Z,3.80
2017-07-23T12:48:58.058Z,3.80
2017-07-23T12:51:24.778Z,4.18
2017-07-23T12:53:51.338Z,4.10
2017-07-23T12:56:18.016Z,4.00
2017-07-23T12:58:44.656Z,3.70
2017-07-23T13:01:12.038Z,4.00
2017-07-23T13:03:38.505Z,4.10
2017-07-23T13:06:04.976Z,4.03
2017-07-23T13:08:32.569Z,4.00
2017-07-23T13:10:59.443Z,4.10
2017-07-23T13:13:26.620Z,4.35
2017-07-23T13:15:53.056Z,3.90
2017-07-23T13:18:19.511Z,4.30
2017-07-23T13:20:46.029Z,3.95
2017-07-23T13:23:13.562Z,3.90
2017-07-23T13:25:40.542Z,4.22
2017-07-23T13:28:07.190Z,4.00
2017-07-23T13:30:33.846Z,4.10
2017-07-23T13:33:00.505Z,3.70
2017-07-23T13:35:27.025Z,4.20
2017-07-23T13:37:53.580Z,3.80
2017-07-23T13:40:20.047Z,3.85
2017-07-23T13:42:47.517Z,3.60
2017-07-23T13:45:14.382Z,3.60
2017-07-23T13:47:40.840Z,3.50
2017-07-23T13:50:07.622Z,4.10
2017-07-23T13:52:34.364Z,3.45
2017-07-23T13:55:00.805Z,3.60
2017-07-23T13:57:28.170Z,4.10
2017-07-23T13:59:55.428Z,3.60
2017-07-23T14:02:21.939Z,3.60
2017-07-23T14:04:48.460Z,3.90
2017-07-23T14:07:14.957Z,3.80
2017-07-23T14:09:41.707Z,3.65
2017-07-23T14:12:08.543Z,3.70
2017-07-23T14:14:51.709Z,3.70
2017-07-23T14:17:18.379Z,3.40
2017-07-23T14:19:45.693Z,3.90
2017-07-23T14:22:12.873Z,4.37
2017-07-23T14:24:39.467Z,4.30
2017-07-23T14:27:07.387Z,4.30
2017-07-23T14:29:34.832Z,3.00
2017-07-23T14:32:02.229Z,3.87
2017-07-23T14:34:28.869Z,4.70
2017-07-23T14:36:56.665Z,3.30
2017-07-23T14:39:23.462Z,3.90
2017-07-23T14:41:50.630Z,3.95
2017-07-23T14:44:18.408Z,3.40
2017-07-23T14:46:45.774Z,3.22
2017-07-23T14:49:12.432Z,3.30
2017-07-23T14:51:39.181Z,3.30
2017-07-23T14:54:07.917Z,2.90
2017-07-23T14:56:34.660Z,3.67
2017-07-23T14:59:01.585Z,3.22
2017-07-23T15:01:28.381Z,3.10
2017-07-23T15:03:54.879Z,3.33
2017-07-23T15:06:22.132Z,3.40
2017-07-23T15:08:48.962Z,3.15
2017-07-23T15:11:15.456Z,3.08
2017-07-23T15:13:42.543Z,3.67
2017-07-23T15:16:08.993Z,2.85
2017-07-23T15:18:35.728Z,3.30
2017-07-23T15:21:02.323Z,2.70
2017-07-23T15:23:28.938Z,3.10
2017-07-23T15:25:55.622Z,4.30
2017-07-23T15:28:22.280Z,4.47
2017-07-23T15:30:49.070Z,3.50
2017-07-23T15:33:16.502Z,4.47
2017-07-23T15:35:43.224Z,2.87
2017-07-23T15:38:10.954Z,2.70
2017-07-23T15:40:37.740Z,2.70
2017-07-23T15:43:04.212Z,2.70
2017-07-23T15:45:30.768Z,2.83
2017-07-23T15:47:57.221Z,3.33
2017-07-23T15:50:23.679Z,3.00
2017-07-23T15:52:50.247Z,2.78
2017-07-23T15:55:17.881Z,3.15
2017-07-23T15:57:44.328Z,3.10
2017-07-23T16:00:11.567Z,4.40
2017-07-23T16:02:38.887Z,3.55
2017-07-23T16:05:06.591Z,3.60
2017-07-23T16:07:33.050Z,2.60
2017-07-23T16:09:59.792Z,3.50
2017-07-23T16:12:26.328Z,2.78
2017-07-23T16:14:53.110Z,3.43
2017-07-23T16:17:20.691Z,2.55
2017-07-23T16:19:47.259Z,2.50
2017-07-23T16:24:59.447Z,2.60
2017-07-23T16:27:25.902Z,3.83
2017-07-23T16:29:52.379Z,2.90
2017-07-23T16:32:18.963Z,2.70
2017-07-23T16:34:45.989Z,2.80
2017-07-23T16:37:12.501Z,3.15
2017-07-23T16:39:38.949Z,2.87
2017-07-23T16:42:05.510Z,2.60
2017-07-23T16:44:31.984Z,3.92
2017-07-23T16:46:58.411Z,2.83
2017-07-23T16:49:25.595Z,3.17
2017-07-23T16:51:52.015Z,3.00
2017-07-23T16:54:19.264Z,2.58
2017-07-23T16:56:45.725Z,2.30
2017-07-23T16:59:12.153Z,2.90
2017-07-23T17:01:39.173Z,2.70
2017-07-23T17:04:05.638Z,2.85
2017-07-23T17:06:32.833Z,2.50
2017-07-23T17:08:59.297Z,3.03
2017-07-23T17:11:25.847Z,2.60
2017-07-23T17:13:52.505Z,2.92
2017-07-23T17:16:19.064Z,4.22
2017-07-23T17:18:45.552Z,3.33
2017-07-23T17:21:12.181Z,3.60
2017-07-23T17:23:38.744Z,3.05
2017-07-23T17:26:05.208Z,2.57
2017-07-23T17:28:31.688Z,3.20
2017-07-23T17:30:58.412Z,2.83
2017-07-23T17:33:24.857Z,2.35
2017-07-23T17:35:52.066Z,3.22
2017-07-23T17:38:18.602Z,3.20
2017-07-23T17:40:45.163Z,2.00
2017-07-23T17:43:11.717Z,2.60
2017-07-23T17:45:38.845Z,2.22
2017-07-23T17:48:05.360Z,2.50
2017-07-23T17:50:31.807Z,2.00
2017-07-23T17:52:58.267Z,3.53
2017-07-23T17:55:24.769Z,2.28
2017-07-23T17:57:51.205Z,2.20
2017-07-23T18:00:18.047Z,3.08
2017-07-23T18:02:44.521Z,2.85
2017-07-23T18:05:11.453Z,2.78
2017-07-23T18:07:38.681Z,3.10
2017-07-23T18:10:05.191Z,3.12
2017-07-23T18:12:32.266Z,3.90
2017-07-23T18:14:58.818Z,3.17
2017-07-23T18:17:25.380Z,2.20
2017-07-23T18:19:51.941Z,2.67
2017-07-23T18:22:18.480Z,3.83
2017-07-23T18:24:45.690Z,3.53
2017-07-23T18:27:12.227Z,4.62
2017-07-23T18:29:38.703Z,3.67
2017-07-23T18:32:05.192Z,3.60
2017-07-23T18:34:31.677Z,3.22
2017-07-23T18:36:58.969Z,2.40
2017-07-23T18:39:25.481Z,2.67
2017-07-23T18:41:52.092Z,3.72
2017-07-23T18:44:18.647Z,3.87
2017-07-23T18:46:45.762Z,4.07
2017-07-23T18:49:12.227Z,3.40
2017-07-23T18:51:38.847Z,2.65
2017-07-23T18:54:05.616Z,2.90
2017-07-23T18:56:32.055Z,2.58
2017-07-23T18:58:58.613Z,2.78
2017-07-23T19:01:25.168Z,4.18
2017-07-23T19:03:51.729Z,3.00
2017-07-23T19:06:18.390Z,3.97
2017-07-23T19:08:44.882Z,3.67
2017-07-23T19:11:11.476Z,4.80
2017-07-23T19:13:38.785Z,3.70
2017-07-23T19:16:05.272Z,3.78
2017-07-23T19:18:31.910Z,3.00
2017-07-23T19:20:58.454Z,2.37
2017-07-23T19:23:25.016Z,3.05
2017-07-23T19:25:51.476Z,3.33
2017-07-23T19:28:17.974Z,4.05
2017-07-23T19:30:44.446Z,2.70
2017-07-23T19:33:10.879Z,3.67
2017-07-23T19:35:37.805Z,2.50
2017-07-23T19:38:04.365Z,3.03
2017-07-23T19:40:30.854Z,3.00
2017-07-23T19:42:57.325Z,2.62
2017-07-23T19:45:23.941Z,4.00
2017-07-23T19:47:50.957Z,9.63
2017-07-23T19:50:17.459Z,8.68
2017-07-23T19:52:44.024Z,8.50
2017-07-23T19:55:10.583Z,6.15
2017-07-23T19:57:37.304Z,5.00
2017-07-23T20:00:03.903Z,4.53
2017-07-23T20:02:30.667Z,5.00
2017-07-23T20:04:57.188Z,3.58
2017-07-23T20:07:23.685Z,3.60
2017-07-23T20:09:50.241Z,3.70
2017-07-23T20:12:16.732Z,4.30
2017-07-23T20:14:43.204Z,3.20
2017-07-23T20:17:09.664Z,3.60
2017-07-23T20:19:36.162Z,4.20
2017-07-23T20:22:02.626Z,4.60
2017-07-23T20:24:29.099Z,5.72
2017-07-23T20:26:55.626Z,5.15
2017-07-23T20:29:22.917Z,3.30
2017-07-23T20:31:49.366Z,3.10
2017-07-23T20:34:15.859Z,3.10
2017-07-23T20:36:42.326Z,3.50
2017-07-23T20:39:09.047Z,3.70
2017-07-23T20:41:35.601Z,3.83
2017-07-23T20:44:02.121Z,4.03
2017-07-23T20:46:28.722Z,4.93
2017-07-23T20:48:55.216Z,4.83
2017-07-23T20:51:21.734Z,3.30
2017-07-23T20:53:48.184Z,3.30
2017-07-23T20:56:15.412Z,4.05
2017-07-23T20:58:41.919Z,3.78
2017-07-23T21:01:08.420Z,3.78
2017-07-23T21:03:34.879Z,3.15
2017-07-23T21:06:01.807Z,3.97
2017-07-23T21:08:28.360Z,3.28
2017-07-23T21:10:54.819Z,3.47
2017-07-23T21:13:21.290Z,4.47
2017-07-23T21:15:47.746Z,6.12
2017-07-23T21:18:14.226Z,4.80
2017-07-23T21:20:40.687Z,4.22
2017-07-23T21:23:07.199Z,3.60
2017-07-23T21:25:34.311Z,3.83
2017-07-23T21:28:00.748Z,3.93
2017-07-23T21:30:27.306Z,3.20
2017-07-23T21:32:54.149Z,4.17
2017-07-23T21:35:20.719Z,3.53
2017-07-23T21:37:47.183Z,3.37
2017-07-23T21:40:13.679Z,3.53
2017-07-23T21:42:40.208Z,3.45
2017-07-23T21:45:06.634Z,3.87
2017-07-23T21:47:33.105Z,3.45
2017-07-23T21:49:59.577Z,3.58
2017-07-23T21:52:26.041Z,7.50
2017-07-23T21:54:52.499Z,4.07
2017-07-23T21:57:18.971Z,5.10
2017-07-23T21:59:46.020Z,4.20
2017-07-23T22:02:12.486Z,3.60
2017-07-23T22:04:38.939Z,5.10
2017-07-23T22:07:05.362Z,3.87
2017-07-23T22:10:48.622Z,4.00
2017-07-23T22:13:15.074Z,3.30
2017-07-23T22:15:41.510Z,4.60
2017-07-23T22:18:08.694Z,3.30
2017-07-23T22:20:35.876Z,3.80
2017-07-23T22:23:02.268Z,3.30
2017-07-23T22:25:28.724Z,3.83
2017-07-23T22:27:55.184Z,3.60
2017-07-23T22:30:21.700Z,3.55
2017-07-23T22:32:48.156Z,5.12
2017-07-23T22:35:15.231Z,4.32
2017-07-23T22:37:41.663Z,3.25
2017-07-23T22:40:08.853Z,3.72
2017-07-23T22:42:35.309Z,3.30
2017-07-23T22:45:02.572Z,4.05
2017-07-23T22:47:29.755Z,3.47
2017-07-23T22:49:56.208Z,3.78
2017-07-23T22:52:23.489Z,4.78
2017-07-23T22:54:49.980Z,3.55
2017-07-23T22:57:17.428Z,3.20
2017-07-23T22:59:43.878Z,3.75
2017-07-23T23:02:10.345Z,3.22
2017-07-23T23:04:36.894Z,3.50
2017-07-23T23:07:03.346Z,3.72
2017-07-23T23:09:29.808Z,4.45
2017-07-23T23:11:56.260Z,3.20
2017-07-23T23:14:23.460Z,4.05
2017-07-23T23:16:49.913Z,3.17
2017-07-23T23:19:16.332Z,3.87
2017-07-23T23:21:43.501Z,4.00
2017-07-23T23:24:10.692Z,3.70
2017-07-23T23:26:37.163Z,3.20
2017-07-23T23:29:03.591Z,3.25
2017-07-23T23:31:30.059Z,3.97
2017-07-23T23:33:57.334Z,3.50
2017-07-23T23:36:23.781Z,3.37
2017-07-23T23:38:50.985Z,5.57
2017-07-23T23:41:17.481Z,4.07
2017-07-23T23:43:43.940Z,3.60
2017-07-23T23:46:10.385Z,3.95
2017-07-23T23:48:36.825Z,3.40
2017-07-23T23:51:03.845Z,2.90
2017-07-23T23:53:31.682Z,4.65
2017-07-23T23:55:58.202Z,4.22
2017-07-23T23:58:24.654Z,3.28
